sensor_id;sensor_type;location;lat;lon;timestamp;P1;durP1;ratioP1;P2;durP2;ratioP2
55172;SDS011;41061;52.822;6.860;2024-03-08T00:01:09;37.88;;;18.77;;
55172;SDS011;41061;52.822;6.860;2024-03-08T00:03:35;34.47;;;18.98;;
55172;SDS011;41061;52.822;6.860;2024-03-08T00:06:01;37.28;;;19.55;;
55172;SDS011;41061;52.822;6.860;2024-03-08T00:08:29;41.13;;;20.63;;
55172;SDS011;41061;52.822;6.860;2024-03-08T00:10:56;38.25;;;19.20;;
55172;SDS011;41061;52.822;6.860;2024-03-08T00:13:22;42.88;;;20.50;;
55172;SDS011;41061;52.822;6.860;2024-03-08T00:15:50;41.67;;;19.90;;
55172;SDS011;41061;52.822;6.860;2024-03-08T00:18:16;35.95;;;21.02;;
55172;SDS011;41061;52.822;6.860;2024-03-08T00:20:42;38.72;;;21.90;;
55172;SDS011;41061;52.822;6.860;2024-03-08T00:23:10;38.72;;;18.67;;
55172;SDS011;41061;52.822;6.860;2024-03-08T00:25:36;42.53;;;20.17;;
55172;SDS011;41061;52.822;6.860;2024-03-08T00:28:04;39.05;;;21.52;;
55172;SDS011;41061;52.822;6.860;2024-03-08T00:30:31;38.97;;;21.02;;
55172;SDS011;41061;52.822;6.860;2024-03-08T00:32:57;41.28;;;21.15;;
55172;SDS011;41061;52.822;6.860;2024-03-08T00:35:23;39.78;;;20.20;;
55172;SDS011;41061;52.822;6.860;2024-03-08T00:37:49;39.85;;;20.45;;
55172;SDS011;41061;52.822;6.860;2024-03-08T00:40:15;36.47;;;20.92;;
55172;SDS011;41061;52.822;6.860;2024-03-08T00:42:41;45.22;;;22.30;;
55172;SDS011;41061;52.822;6.860;2024-03-08T00:45:09;47.22;;;23.52;;
55172;SDS011;41061;52.822;6.860;2024-03-08T00:47:35;39.58;;;20.30;;
55172;SDS011;41061;52.822;6.860;2024-03-08T00:50:01;43.53;;;20.90;;
55172;SDS011;41061;52.822;6.860;2024-03-08T00:52:29;43.55;;;22.13;;
55172;SDS011;41061;52.822;6.860;2024-03-08T00:54:55;39.55;;;21.70;;
55172;SDS011;41061;52.822;6.860;2024-03-08T00:57:21;46.17;;;22.15;;
55172;SDS011;41061;52.822;6.860;2024-03-08T00:59:48;44.45;;;21.92;;
55172;SDS011;41061;52.822;6.860;2024-03-08T01:02:14;42.53;;;23.35;;
55172;SDS011;41061;52.822;6.860;2024-03-08T01:04:42;43.58;;;21.25;;
55172;SDS011;41061;52.822;6.860;2024-03-08T01:07:08;44.83;;;22.52;;
55172;SDS011;41061;52.822;6.860;2024-03-08T01:09:34;43.80;;;21.92;;
55172;SDS011;41061;52.822;6.860;2024-03-08T01:12:01;38.25;;;20.98;;
55172;SDS011;41061;52.822;6.860;2024-03-08T01:14:27;41.05;;;23.50;;
55172;SDS011;41061;52.822;6.860;2024-03-08T01:16:56;36.90;;;21.63;;
55172;SDS011;41061;52.822;6.860;2024-03-08T01:19:22;37.42;;;22.80;;
55172;SDS011;41061;52.822;6.860;2024-03-08T01:21:49;43.08;;;23.10;;
55172;SDS011;41061;52.822;6.860;2024-03-08T01:24:15;44.90;;;22.00;;
55172;SDS011;41061;52.822;6.860;2024-03-08T01:26:41;40.25;;;22.05;;
55172;SDS011;41061;52.822;6.860;2024-03-08T01:29:07;41.17;;;20.98;;
55172;SDS011;41061;52.822;6.860;2024-03-08T01:31:33;41.17;;;20.90;;
55172;SDS011;41061;52.822;6.860;2024-03-08T01:34:01;41.55;;;21.80;;
55172;SDS011;41061;52.822;6.860;2024-03-08T01:36:27;39.08;;;20.60;;
55172;SDS011;41061;52.822;6.860;2024-03-08T01:38:54;39.60;;;21.48;;
55172;SDS011;41061;52.822;6.860;2024-03-08T01:41:20;38.85;;;21.83;;
55172;SDS011;41061;52.822;6.860;2024-03-08T01:43:46;40.83;;;21.33;;
55172;SDS011;41061;52.822;6.860;2024-03-08T01:46:13;39.25;;;21.85;;
55172;SDS011;41061;52.822;6.860;2024-03-08T01:48:41;43.13;;;20.55;;
55172;SDS011;41061;52.822;6.860;2024-03-08T01:51:07;40.38;;;21.98;;
55172;SDS011;41061;52.822;6.860;2024-03-08T01:53:34;40.95;;;21.95;;
55172;SDS011;41061;52.822;6.860;2024-03-08T01:56:00;41.15;;;21.52;;
55172;SDS011;41061;52.822;6.860;2024-03-08T01:58:28;41.13;;;21.85;;
55172;SDS011;41061;52.822;6.860;2024-03-08T02:00:54;41.17;;;22.42;;
55172;SDS011;41061;52.822;6.860;2024-03-08T02:03:22;34.30;;;19.70;;
55172;SDS011;41061;52.822;6.860;2024-03-08T02:05:48;45.70;;;22.52;;
55172;SDS011;41061;52.822;6.860;2024-03-08T02:08:14;40.30;;;21.73;;
55172;SDS011;41061;52.822;6.860;2024-03-08T02:10:41;43.17;;;22.02;;
55172;SDS011;41061;52.822;6.860;2024-03-08T02:13:07;41.63;;;23.33;;
55172;SDS011;41061;52.822;6.860;2024-03-08T02:15:50;39.47;;;21.08;;
55172;SDS011;41061;52.822;6.860;2024-03-08T02:18:16;40.67;;;21.30;;
55172;SDS011;41061;52.822;6.860;2024-03-08T02:20:42;41.47;;;21.88;;
55172;SDS011;41061;52.822;6.860;2024-03-08T02:23:08;35.28;;;20.55;;
55172;SDS011;41061;52.822;6.860;2024-03-08T02:25:35;42.67;;;21.70;;
55172;SDS011;41061;52.822;6.860;2024-03-08T02:28:01;38.13;;;21.58;;
55172;SDS011;41061;52.822;6.860;2024-03-08T02:30:27;40.10;;;21.67;;
55172;SDS011;41061;52.822;6.860;2024-03-08T02:32:55;37.05;;;21.45;;
55172;SDS011;41061;52.822;6.860;2024-03-08T02:35:21;37.70;;;21.70;;
55172;SDS011;41061;52.822;6.860;2024-03-08T02:37:47;38.40;;;20.25;;
55172;SDS011;41061;52.822;6.860;2024-03-08T02:40:13;43.78;;;23.13;;
55172;SDS011;41061;52.822;6.860;2024-03-08T02:42:39;44.67;;;22.52;;
55172;SDS011;41061;52.822;6.860;2024-03-08T02:45:05;39.25;;;20.50;;
55172;SDS011;41061;52.822;6.860;2024-03-08T02:47:34;40.88;;;21.48;;
55172;SDS011;41061;52.822;6.860;2024-03-08T02:50:00;43.42;;;21.30;;
55172;SDS011;41061;52.822;6.860;2024-03-08T02:52:28;41.70;;;22.23;;
55172;SDS011;41061;52.822;6.860;2024-03-08T02:54:55;40.25;;;21.48;;
55172;SDS011;41061;52.822;6.860;2024-03-08T02:57:21;41.85;;;22.00;;
55172;SDS011;41061;52.822;6.860;2024-03-08T02:59:48;39.42;;;22.23;;
55172;SDS011;41061;52.822;6.860;2024-03-08T03:02:14;49.78;;;22.75;;
55172;SDS011;41061;52.822;6.860;2024-03-08T03:04:41;44.03;;;22.15;;
55172;SDS011;41061;52.822;6.860;2024-03-08T03:07:08;38.10;;;21.27;;
55172;SDS011;41061;52.822;6.860;2024-03-08T03:09:34;41.63;;;22.17;;
55172;SDS011;41061;52.822;6.860;2024-03-08T03:12:00;38.88;;;22.00;;
55172;SDS011;41061;52.822;6.860;2024-03-08T03:14:26;43.58;;;23.73;;
55172;SDS011;41061;52.822;6.860;2024-03-08T03:16:52;40.72;;;21.75;;
55172;SDS011;41061;52.822;6.860;2024-03-08T03:19:19;43.47;;;22.08;;
55172;SDS011;41061;52.822;6.860;2024-03-08T03:21:45;42.00;;;22.38;;
55172;SDS011;41061;52.822;6.860;2024-03-08T03:24:12;46.22;;;22.58;;
55172;SDS011;41061;52.822;6.860;2024-03-08T03:26:41;45.17;;;23.58;;
55172;SDS011;41061;52.822;6.860;2024-03-08T03:29:08;43.58;;;22.98;;
55172;SDS011;41061;52.822;6.860;2024-03-08T03:31:36;45.67;;;22.73;;
55172;SDS011;41061;52.822;6.860;2024-03-08T03:34:02;39.75;;;21.95;;
55172;SDS011;41061;52.822;6.860;2024-03-08T03:36:31;45.33;;;23.02;;
55172;SDS011;41061;52.822;6.860;2024-03-08T03:39:00;41.28;;;22.25;;
55172;SDS011;41061;52.822;6.860;2024-03-08T03:41:34;40.78;;;23.17;;
55172;SDS011;41061;52.822;6.860;2024-03-08T03:44:01;46.33;;;23.40;;
55172;SDS011;41061;52.822;6.860;2024-03-08T03:46:27;42.78;;;22.88;;
55172;SDS011;41061;52.822;6.860;2024-03-08T03:48:54;43.08;;;22.75;;
55172;SDS011;41061;52.822;6.860;2024-03-08T03:51:20;43.55;;;22.85;;
55172;SDS011;41061;52.822;6.860;2024-03-08T03:53:47;38.53;;;21.27;;
55172;SDS011;41061;52.822;6.860;2024-03-08T03:56:13;45.30;;;21.48;;
55172;SDS011;41061;52.822;6.860;2024-03-08T03:58:39;38.53;;;21.50;;
55172;SDS011;41061;52.822;6.860;2024-03-08T04:01:05;41.85;;;22.92;;
55172;SDS011;41061;52.822;6.860;2024-03-08T04:03:31;40.85;;;22.95;;
55172;SDS011;41061;52.822;6.860;2024-03-08T04:05:57;43.03;;;22.38;;
55172;SDS011;41061;52.822;6.860;2024-03-08T04:08:24;42.83;;;23.15;;
55172;SDS011;41061;52.822;6.860;2024-03-08T04:10:50;39.65;;;22.23;;
55172;SDS011;41061;52.822;6.860;2024-03-08T04:13:16;46.85;;;22.35;;
55172;SDS011;41061;52.822;6.860;2024-03-08T04:15:42;39.80;;;22.23;;
55172;SDS011;41061;52.822;6.860;2024-03-08T04:18:09;40.42;;;20.92;;
55172;SDS011;41061;52.822;6.860;2024-03-08T04:20:35;39.97;;;22.08;;
55172;SDS011;41061;52.822;6.860;2024-03-08T04:23:02;36.42;;;20.73;;
55172;SDS011;41061;52.822;6.860;2024-03-08T04:25:28;41.10;;;21.42;;
55172;SDS011;41061;52.822;6.860;2024-03-08T04:27:55;40.92;;;22.63;;
55172;SDS011;41061;52.822;6.860;2024-03-08T04:30:22;41.10;;;21.98;;
55172;SDS011;41061;52.822;6.860;2024-03-08T04:32:48;42.25;;;23.52;;
55172;SDS011;41061;52.822;6.860;2024-03-08T04:35:14;37.22;;;22.30;;
55172;SDS011;41061;52.822;6.860;2024-03-08T04:37:40;43.88;;;22.90;;
55172;SDS011;41061;52.822;6.860;2024-03-08T04:40:07;39.25;;;21.55;;
55172;SDS011;41061;52.822;6.860;2024-03-08T04:42:33;42.05;;;22.10;;
55172;SDS011;41061;52.822;6.860;2024-03-08T04:45:00;42.05;;;22.90;;
55172;SDS011;41061;52.822;6.860;2024-03-08T04:47:26;43.03;;;21.88;;
55172;SDS011;41061;52.822;6.860;2024-03-08T04:49:52;46.47;;;22.75;;
55172;SDS011;41061;52.822;6.860;2024-03-08T04:52:19;41.85;;;21.73;;
55172;SDS011;41061;52.822;6.860;2024-03-08T04:54:47;41.75;;;22.73;;
55172;SDS011;41061;52.822;6.860;2024-03-08T04:57:13;37.10;;;21.05;;
55172;SDS011;41061;52.822;6.860;2024-03-08T04:59:39;38.95;;;21.45;;
55172;SDS011;41061;52.822;6.860;2024-03-08T05:02:05;44.10;;;22.13;;
55172;SDS011;41061;52.822;6.860;2024-03-08T05:04:32;40.38;;;22.65;;
55172;SDS011;41061;52.822;6.860;2024-03-08T05:06:58;40.42;;;21.83;;
55172;SDS011;41061;52.822;6.860;2024-03-08T05:09:26;37.88;;;22.10;;
55172;SDS011;41061;52.822;6.860;2024-03-08T05:11:56;41.28;;;22.25;;
55172;SDS011;41061;52.822;6.860;2024-03-08T05:14:24;47.60;;;22.65;;
55172;SDS011;41061;52.822;6.860;2024-03-08T05:16:50;43.85;;;21.38;;
55172;SDS011;41061;52.822;6.860;2024-03-08T05:19:17;49.03;;;22.60;;
55172;SDS011;41061;52.822;6.860;2024-03-08T05:21:43;41.72;;;21.65;;
55172;SDS011;41061;52.822;6.860;2024-03-08T05:24:09;41.65;;;23.58;;
55172;SDS011;41061;52.822;6.860;2024-03-08T05:26:36;47.17;;;22.25;;
55172;SDS011;41061;52.822;6.860;2024-03-08T05:29:04;44.45;;;21.33;;
55172;SDS011;41061;52.822;6.860;2024-03-08T05:31:31;46.72;;;22.20;;
55172;SDS011;41061;52.822;6.860;2024-03-08T05:34:01;40.13;;;21.73;;
55172;SDS011;41061;52.822;6.860;2024-03-08T05:36:27;42.75;;;22.10;;
55172;SDS011;41061;52.822;6.860;2024-03-08T05:38:54;41.85;;;23.05;;
55172;SDS011;41061;52.822;6.860;2024-03-08T05:41:20;43.63;;;22.88;;
55172;SDS011;41061;52.822;6.860;2024-03-08T05:43:46;41.72;;;23.05;;
55172;SDS011;41061;52.822;6.860;2024-03-08T05:46:15;40.20;;;22.55;;
55172;SDS011;41061;52.822;6.860;2024-03-08T05:48:44;42.22;;;23.20;;
55172;SDS011;41061;52.822;6.860;2024-03-08T05:51:10;43.00;;;23.35;;
55172;SDS011;41061;52.822;6.860;2024-03-08T05:53:37;43.95;;;22.60;;
55172;SDS011;41061;52.822;6.860;2024-03-08T05:56:03;41.97;;;22.85;;
55172;SDS011;41061;52.822;6.860;2024-03-08T05:58:29;43.63;;;22.92;;
55172;SDS011;41061;52.822;6.860;2024-03-08T06:00:56;40.60;;;22.08;;
55172;SDS011;41061;52.822;6.860;2024-03-08T06:03:22;48.90;;;24.48;;
55172;SDS011;41061;52.822;6.860;2024-03-08T06:05:50;41.65;;;23.15;;
55172;SDS011;41061;52.822;6.860;2024-03-08T06:08:16;40.35;;;23.15;;
55172;SDS011;41061;52.822;6.860;2024-03-08T06:10:44;38.55;;;22.67;;
55172;SDS011;41061;52.822;6.860;2024-03-08T06:13:10;39.28;;;22.27;;
55172;SDS011;41061;52.822;6.860;2024-03-08T06:15:37;45.85;;;23.15;;
55172;SDS011;41061;52.822;6.860;2024-03-08T06:18:03;42.15;;;23.58;;
55172;SDS011;41061;52.822;6.860;2024-03-08T06:20:31;40.15;;;21.80;;
55172;SDS011;41061;52.822;6.860;2024-03-08T06:22:57;43.13;;;23.15;;
55172;SDS011;41061;52.822;6.860;2024-03-08T06:25:23;40.63;;;21.67;;
55172;SDS011;41061;52.822;6.860;2024-03-08T06:27:49;38.92;;;20.83;;
55172;SDS011;41061;52.822;6.860;2024-03-08T06:30:15;45.58;;;23.13;;
55172;SDS011;41061;52.822;6.860;2024-03-08T06:32:41;42.30;;;21.77;;
55172;SDS011;41061;52.822;6.860;2024-03-08T06:35:08;42.83;;;22.27;;
55172;SDS011;41061;52.822;6.860;2024-03-08T06:37:35;45.53;;;23.52;;
55172;SDS011;41061;52.822;6.860;2024-03-08T06:40:02;41.28;;;22.73;;
55172;SDS011;41061;52.822;6.860;2024-03-08T06:42:29;44.33;;;22.85;;
55172;SDS011;41061;52.822;6.860;2024-03-08T06:44:59;41.40;;;22.02;;
55172;SDS011;41061;52.822;6.860;2024-03-08T06:47:29;44.25;;;23.42;;
55172;SDS011;41061;52.822;6.860;2024-03-08T06:49:55;48.05;;;23.42;;
55172;SDS011;41061;52.822;6.860;2024-03-08T06:52:21;42.83;;;22.55;;
55172;SDS011;41061;52.822;6.860;2024-03-08T06:54:48;44.88;;;22.42;;
55172;SDS011;41061;52.822;6.860;2024-03-08T06:57:14;42.15;;;23.35;;
55172;SDS011;41061;52.822;6.860;2024-03-08T06:59:41;41.75;;;23.25;;
55172;SDS011;41061;52.822;6.860;2024-03-08T07:02:08;42.20;;;22.73;;
55172;SDS011;41061;52.822;6.860;2024-03-08T07:04:35;45.28;;;23.67;;
55172;SDS011;41061;52.822;6.860;2024-03-08T07:07:06;41.10;;;22.80;;
55172;SDS011;41061;52.822;6.860;2024-03-08T07:09:36;43.40;;;23.17;;
55172;SDS011;41061;52.822;6.860;2024-03-08T07:12:02;47.55;;;24.23;;
55172;SDS011;41061;52.822;6.860;2024-03-08T07:14:29;42.28;;;22.95;;
55172;SDS011;41061;52.822;6.860;2024-03-08T07:16:56;38.47;;;22.08;;
55172;SDS011;41061;52.822;6.860;2024-03-08T07:19:22;40.53;;;23.30;;
55172;SDS011;41061;52.822;6.860;2024-03-08T07:21:49;43.25;;;22.75;;
55172;SDS011;41061;52.822;6.860;2024-03-08T07:24:15;45.47;;;23.73;;
55172;SDS011;41061;52.822;6.860;2024-03-08T07:27:00;40.22;;;23.38;;
55172;SDS011;41061;52.822;6.860;2024-03-08T07:29:26;44.13;;;23.33;;
55172;SDS011;41061;52.822;6.860;2024-03-08T07:31:53;41.63;;;23.42;;
55172;SDS011;41061;52.822;6.860;2024-03-08T07:34:25;38.83;;;21.27;;
55172;SDS011;41061;52.822;6.860;2024-03-08T07:36:51;46.05;;;23.55;;
55172;SDS011;41061;52.822;6.860;2024-03-08T07:39:17;41.20;;;23.52;;
55172;SDS011;41061;52.822;6.860;2024-03-08T07:41:44;42.45;;;22.95;;
55172;SDS011;41061;52.822;6.860;2024-03-08T07:44:10;42.28;;;23.58;;
55172;SDS011;41061;52.822;6.860;2024-03-08T07:46:36;38.17;;;22.52;;
55172;SDS011;41061;52.822;6.860;2024-03-08T07:49:03;39.33;;;23.15;;
55172;SDS011;41061;52.822;6.860;2024-03-08T07:51:29;41.75;;;22.98;;
55172;SDS011;41061;52.822;6.860;2024-03-08T07:53:55;43.42;;;23.63;;
55172;SDS011;41061;52.822;6.860;2024-03-08T07:56:22;42.70;;;24.05;;
55172;SDS011;41061;52.822;6.860;2024-03-08T07:58:48;40.03;;;23.55;;
55172;SDS011;41061;52.822;6.860;2024-03-08T08:01:18;43.90;;;23.15;;
55172;SDS011;41061;52.822;6.860;2024-03-08T08:03:44;41.05;;;23.52;;
55172;SDS011;41061;52.822;6.860;2024-03-08T08:06:11;37.60;;;23.33;;
55172;SDS011;41061;52.822;6.860;2024-03-08T08:08:43;42.58;;;23.25;;
55172;SDS011;41061;52.822;6.860;2024-03-08T08:11:10;42.50;;;23.60;;
55172;SDS011;41061;52.822;6.860;2024-03-08T08:13:36;42.60;;;24.50;;
55172;SDS011;41061;52.822;6.860;2024-03-08T08:16:03;43.67;;;24.60;;
55172;SDS011;41061;52.822;6.860;2024-03-08T08:18:30;40.80;;;23.77;;
55172;SDS011;41061;52.822;6.860;2024-03-08T08:20:58;43.72;;;23.88;;
55172;SDS011;41061;52.822;6.860;2024-03-08T08:23:27;42.05;;;23.65;;
55172;SDS011;41061;52.822;6.860;2024-03-08T08:25:55;40.75;;;24.05;;
55172;SDS011;41061;52.822;6.860;2024-03-08T08:28:21;43.08;;;25.90;;
55172;SDS011;41061;52.822;6.860;2024-03-08T08:30:47;39.28;;;23.85;;
55172;SDS011;41061;52.822;6.860;2024-03-08T08:33:14;37.75;;;24.13;;
55172;SDS011;41061;52.822;6.860;2024-03-08T08:35:40;40.67;;;24.23;;
55172;SDS011;41061;52.822;6.860;2024-03-08T08:38:07;41.03;;;24.48;;
55172;SDS011;41061;52.822;6.860;2024-03-08T08:40:34;43.53;;;23.42;;
55172;SDS011;41061;52.822;6.860;2024-03-08T08:43:01;41.58;;;24.27;;
55172;SDS011;41061;52.822;6.860;2024-03-08T08:45:29;41.67;;;23.83;;
55172;SDS011;41061;52.822;6.860;2024-03-08T08:47:55;43.67;;;23.85;;
55172;SDS011;41061;52.822;6.860;2024-03-08T08:50:22;43.17;;;24.42;;
55172;SDS011;41061;52.822;6.860;2024-03-08T08:52:48;37.78;;;22.05;;
55172;SDS011;41061;52.822;6.860;2024-03-08T08:55:15;41.58;;;25.88;;
55172;SDS011;41061;52.822;6.860;2024-03-08T08:57:45;40.90;;;24.85;;
55172;SDS011;41061;52.822;6.860;2024-03-08T09:00:12;39.40;;;24.77;;
55172;SDS011;41061;52.822;6.860;2024-03-08T09:02:42;38.80;;;23.98;;
55172;SDS011;41061;52.822;6.860;2024-03-08T09:05:08;39.90;;;24.55;;
55172;SDS011;41061;52.822;6.860;2024-03-08T09:07:34;38.40;;;23.33;;
55172;SDS011;41061;52.822;6.860;2024-03-08T09:10:00;39.83;;;24.08;;
55172;SDS011;41061;52.822;6.860;2024-03-08T09:12:27;37.00;;;23.33;;
55172;SDS011;41061;52.822;6.860;2024-03-08T09:14:53;40.55;;;23.88;;
55172;SDS011;41061;52.822;6.860;2024-03-08T09:17:19;39.75;;;23.75;;
55172;SDS011;41061;52.822;6.860;2024-03-08T09:19:49;47.05;;;24.33;;
55172;SDS011;41061;52.822;6.860;2024-03-08T09:22:15;40.13;;;24.33;;
55172;SDS011;41061;52.822;6.860;2024-03-08T09:24:43;39.90;;;24.05;;
55172;SDS011;41061;52.822;6.860;2024-03-08T09:27:09;41.70;;;24.33;;
55172;SDS011;41061;52.822;6.860;2024-03-08T09:29:35;35.05;;;22.38;;
55172;SDS011;41061;52.822;6.860;2024-03-08T09:32:01;35.95;;;22.08;;
55172;SDS011;41061;52.822;6.860;2024-03-08T09:34:28;39.30;;;23.38;;
55172;SDS011;41061;52.822;6.860;2024-03-08T09:36:55;41.30;;;23.98;;
55172;SDS011;41061;52.822;6.860;2024-03-08T09:39:21;41.00;;;24.73;;
55172;SDS011;41061;52.822;6.860;2024-03-08T09:41:48;38.05;;;23.50;;
55172;SDS011;41061;52.822;6.860;2024-03-08T09:44:14;37.78;;;23.10;;
55172;SDS011;41061;52.822;6.860;2024-03-08T09:46:41;33.67;;;22.58;;
55172;SDS011;41061;52.822;6.860;2024-03-08T09:49:08;36.75;;;23.52;;
55172;SDS011;41061;52.822;6.860;2024-03-08T09:51:36;34.80;;;22.80;;
55172;SDS011;41061;52.822;6.860;2024-03-08T09:54:03;37.97;;;23.90;;
55172;SDS011;41061;52.822;6.860;2024-03-08T09:56:31;39.47;;;24.17;;
55172;SDS011;41061;52.822;6.860;2024-03-08T09:58:59;38.17;;;23.88;;
55172;SDS011;41061;52.822;6.860;2024-03-08T10:01:45;37.28;;;23.77;;
55172;SDS011;41061;52.822;6.860;2024-03-08T10:04:11;40.63;;;24.65;;
55172;SDS011;41061;52.822;6.860;2024-03-08T10:06:39;37.05;;;23.63;;
55172;SDS011;41061;52.822;6.860;2024-03-08T10:09:06;36.03;;;24.35;;
55172;SDS011;41061;52.822;6.860;2024-03-08T10:11:33;36.70;;;23.52;;
55172;SDS011;41061;52.822;6.860;2024-03-08T10:13:59;37.58;;;23.73;;
55172;SDS011;41061;52.822;6.860;2024-03-08T10:16:26;34.35;;;23.58;;
55172;SDS011;41061;52.822;6.860;2024-03-08T10:18:55;35.05;;;22.35;;
55172;SDS011;41061;52.822;6.860;2024-03-08T10:21:21;34.67;;;22.80;;
55172;SDS011;41061;52.822;6.860;2024-03-08T10:23:48;37.38;;;22.88;;
55172;SDS011;41061;52.822;6.860;2024-03-08T10:26:16;35.58;;;23.85;;
55172;SDS011;41061;52.822;6.860;2024-03-08T10:28:46;34.45;;;22.65;;
55172;SDS011;41061;52.822;6.860;2024-03-08T10:31:13;36.78;;;23.60;;
55172;SDS011;41061;52.822;6.860;2024-03-08T10:33:42;35.50;;;22.58;;
55172;SDS011;41061;52.822;6.860;2024-03-08T10:36:12;35.70;;;22.35;;
55172;SDS011;41061;52.822;6.860;2024-03-08T10:38:40;34.88;;;21.85;;
55172;SDS011;41061;52.822;6.860;2024-03-08T10:41:12;37.20;;;22.33;;
55172;SDS011;41061;52.822;6.860;2024-03-08T10:46:20;36.45;;;22.88;;
55172;SDS011;41061;52.822;6.860;2024-03-08T10:48:55;35.17;;;22.65;;
55172;SDS011;41061;52.822;6.860;2024-03-08T10:51:24;36.63;;;23.10;;
55172;SDS011;41061;52.822;6.860;2024-03-08T10:53:51;35.75;;;22.60;;
55172;SDS011;41061;52.822;6.860;2024-03-08T10:56:19;34.88;;;22.35;;
55172;SDS011;41061;52.822;6.860;2024-03-08T10:58:45;37.90;;;23.83;;
55172;SDS011;41061;52.822;6.860;2024-03-08T11:01:12;35.45;;;23.35;;
55172;SDS011;41061;52.822;6.860;2024-03-08T11:06:52;38.85;;;24.20;;
55172;SDS011;41061;52.822;6.860;2024-03-08T11:09:01;34.40;;;22.90;;
55172;SDS011;41061;52.822;6.860;2024-03-08T11:11:27;34.30;;;22.90;;
55172;SDS011;41061;52.822;6.860;2024-03-08T11:13:59;35.17;;;23.08;;
55172;SDS011;41061;52.822;6.860;2024-03-08T11:19:06;33.15;;;22.38;;
55172;SDS011;41061;52.822;6.860;2024-03-08T11:21:35;34.50;;;22.90;;
55172;SDS011;41061;52.822;6.860;2024-03-08T11:24:08;34.45;;;22.58;;
55172;SDS011;41061;52.822;6.860;2024-03-08T11:26:38;33.90;;;22.33;;
55172;SDS011;41061;52.822;6.860;2024-03-08T11:32:03;36.08;;;23.02;;
55172;SDS011;41061;52.822;6.860;2024-03-08T11:34:34;37.20;;;22.40;;
55172;SDS011;41061;52.822;6.860;2024-03-08T11:37:00;33.65;;;23.17;;
55172;SDS011;41061;52.822;6.860;2024-03-08T11:39:26;33.85;;;23.10;;
55172;SDS011;41061;52.822;6.860;2024-03-08T11:41:53;34.13;;;23.50;;
55172;SDS011;41061;52.822;6.860;2024-03-08T11:44:20;37.67;;;23.05;;
55172;SDS011;41061;52.822;6.860;2024-03-08T11:46:46;35.97;;;23.27;;
55172;SDS011;41061;52.822;6.860;2024-03-08T11:49:13;30.88;;;21.75;;
55172;SDS011;41061;52.822;6.860;2024-03-08T11:51:39;33.40;;;22.05;;
55172;SDS011;41061;52.822;6.860;2024-03-08T11:54:10;32.30;;;23.58;;
55172;SDS011;41061;52.822;6.860;2024-03-08T11:56:38;32.90;;;21.40;;
55172;SDS011;41061;52.822;6.860;2024-03-08T11:59:04;32.75;;;22.02;;
55172;SDS011;41061;52.822;6.860;2024-03-08T12:01:30;32.10;;;23.38;;
55172;SDS011;41061;52.822;6.860;2024-03-08T12:03:56;33.83;;;22.08;;
55172;SDS011;41061;52.822;6.860;2024-03-08T12:06:25;33.65;;;23.13;;
55172;SDS011;41061;52.822;6.860;2024-03-08T12:08:52;39.22;;;23.48;;
55172;SDS011;41061;52.822;6.860;2024-03-08T12:11:19;32.53;;;21.73;;
55172;SDS011;41061;52.822;6.860;2024-03-08T12:13:50;32.70;;;23.08;;
55172;SDS011;41061;52.822;6.860;2024-03-08T12:16:17;31.98;;;22.10;;
55172;SDS011;41061;52.822;6.860;2024-03-08T12:18:50;34.25;;;22.10;;
55172;SDS011;41061;52.822;6.860;2024-03-08T12:21:17;29.05;;;21.10;;
55172;SDS011;41061;52.822;6.860;2024-03-08T12:23:45;35.30;;;23.30;;
55172;SDS011;41061;52.822;6.860;2024-03-08T12:28:51;31.33;;;22.50;;
55172;SDS011;41061;52.822;6.860;2024-03-08T12:31:17;32.83;;;22.17;;
55172;SDS011;41061;52.822;6.860;2024-03-08T12:33:50;31.08;;;22.08;;
55172;SDS011;41061;52.822;6.860;2024-03-08T12:36:17;31.30;;;22.25;;
55172;SDS011;41061;52.822;6.860;2024-03-08T12:38:47;30.65;;;21.85;;
55172;SDS011;41061;52.822;6.860;2024-03-08T12:41:17;31.02;;;20.83;;
55172;SDS011;41061;52.822;6.860;2024-03-08T12:43:44;29.40;;;21.25;;
55172;SDS011;41061;52.822;6.860;2024-03-08T12:46:19;30.60;;;22.48;;
55172;SDS011;41061;52.822;6.860;2024-03-08T12:48:46;27.92;;;21.58;;
55172;SDS011;41061;52.822;6.860;2024-03-08T12:51:13;33.40;;;21.35;;
55172;SDS011;41061;52.822;6.860;2024-03-08T12:53:43;30.85;;;23.00;;
55172;SDS011;41061;52.822;6.860;2024-03-08T12:56:10;30.65;;;21.40;;
55172;SDS011;41061;52.822;6.860;2024-03-08T12:58:37;28.33;;;21.05;;
55172;SDS011;41061;52.822;6.860;2024-03-08T13:01:04;29.45;;;21.45;;
55172;SDS011;41061;52.822;6.860;2024-03-08T13:03:36;31.80;;;20.27;;
55172;SDS011;41061;52.822;6.860;2024-03-08T13:06:02;28.70;;;20.73;;
55172;SDS011;41061;52.822;6.860;2024-03-08T13:08:36;25.88;;;19.05;;
55172;SDS011;41061;52.822;6.860;2024-03-08T13:11:08;27.35;;;19.35;;
55172;SDS011;41061;52.822;6.860;2024-03-08T13:13:39;27.13;;;18.20;;
55172;SDS011;41061;52.822;6.860;2024-03-08T13:16:05;26.77;;;19.08;;
55172;SDS011;41061;52.822;6.860;2024-03-08T13:18:35;28.27;;;20.33;;
55172;SDS011;41061;52.822;6.860;2024-03-08T13:21:01;28.15;;;19.20;;
55172;SDS011;41061;52.822;6.860;2024-03-08T13:23:32;27.02;;;18.42;;
55172;SDS011;41061;52.822;6.860;2024-03-08T13:26:04;30.80;;;20.98;;
55172;SDS011;41061;52.822;6.860;2024-03-08T13:28:30;31.35;;;19.38;;
55172;SDS011;41061;52.822;6.860;2024-03-08T13:31:01;27.52;;;19.05;;
55172;SDS011;41061;52.822;6.860;2024-03-08T13:33:28;28.23;;;19.17;;
55172;SDS011;41061;52.822;6.860;2024-03-08T13:35:55;24.23;;;18.25;;
55172;SDS011;41061;52.822;6.860;2024-03-08T13:38:22;25.13;;;17.90;;
55172;SDS011;41061;52.822;6.860;2024-03-08T13:40:47;25.90;;;18.52;;
55172;SDS011;41061;52.822;6.860;2024-03-08T13:43:14;26.60;;;18.48;;
55172;SDS011;41061;52.822;6.860;2024-03-08T13:45:39;23.38;;;17.85;;
55172;SDS011;41061;52.822;6.860;2024-03-08T13:48:06;26.73;;;18.80;;
55172;SDS011;41061;52.822;6.860;2024-03-08T13:50:32;27.10;;;18.33;;
55172;SDS011;41061;52.822;6.860;2024-03-08T13:52:57;26.33;;;17.95;;
55172;SDS011;41061;52.822;6.860;2024-03-08T13:55:23;26.23;;;18.17;;
55172;SDS011;41061;52.822;6.860;2024-03-08T13:57:52;23.80;;;18.33;;
55172;SDS011;41061;52.822;6.860;2024-03-08T14:00:18;26.50;;;18.38;;
55172;SDS011;41061;52.822;6.860;2024-03-08T14:02:47;22.27;;;17.70;;
55172;SDS011;41061;52.822;6.860;2024-03-08T14:05:14;23.92;;;17.05;;
55172;SDS011;41061;52.822;6.860;2024-03-08T14:07:41;23.70;;;17.02;;
55172;SDS011;41061;52.822;6.860;2024-03-08T14:10:07;24.17;;;17.33;;
55172;SDS011;41061;52.822;6.860;2024-03-08T14:12:35;25.02;;;18.10;;
55172;SDS011;41061;52.822;6.860;2024-03-08T14:15:01;28.40;;;18.58;;
55172;SDS011;41061;52.822;6.860;2024-03-08T14:17:29;25.92;;;18.05;;
55172;SDS011;41061;52.822;6.860;2024-03-08T14:19:56;23.30;;;18.08;;
55172;SDS011;41061;52.822;6.860;2024-03-08T14:22:22;25.67;;;17.90;;
55172;SDS011;41061;52.822;6.860;2024-03-08T14:24:48;29.70;;;18.42;;
55172;SDS011;41061;52.822;6.860;2024-03-08T14:27:15;25.50;;;18.60;;
55172;SDS011;41061;52.822;6.860;2024-03-08T14:29:42;24.88;;;18.52;;
55172;SDS011;41061;52.822;6.860;2024-03-08T14:32:10;25.92;;;18.58;;
55172;SDS011;41061;52.822;6.860;2024-03-08T14:34:38;26.25;;;18.90;;